sensor_id;sensor_type;location;lat;lon;timestamp;temperature;humidity
70321;DHT22;61127;55.826;37.046;2022-08-19T00:01:51;20.78;47.47
70321;DHT22;61127;55.826;37.046;2022-08-19T00:04:19;20.83;47.62
70321;DHT22;61127;55.826;37.046;2022-08-19T00:06:46;20.85;47.62
70321;DHT22;61127;55.826;37.046;2022-08-19T00:09:15;20.88;47.86
70321;DHT22;61127;55.826;37.046;2022-08-19T00:11:43;20.89;47.68
70321;DHT22;61127;55.826;37.046;2022-08-19T00:14:11;20.91;47.90
70321;DHT22;61127;55.826;37.046;2022-08-19T00:16:39;20.92;47.98
70321;DHT22;61127;55.826;37.046;2022-08-19T00:19:07;20.90;47.79
70321;DHT22;61127;55.826;37.046;2022-08-19T00:21:33;20.91;47.76
70321;DHT22;61127;55.826;37.046;2022-08-19T00:24:04;20.92;47.70
70321;DHT22;61127;55.826;37.046;2022-08-19T00:26:30;20.94;47.83
70321;DHT22;61127;55.826;37.046;2022-08-19T00:28:56;20.93;47.71
70321;DHT22;61127;55.826;37.046;2022-08-19T00:31:22;20.95;47.49
70321;DHT22;61127;55.826;37.046;2022-08-19T00:33:48;20.93;47.22
70321;DHT22;61127;55.826;37.046;2022-08-19T00:36:19;20.89;47.73
70321;DHT22;61127;55.826;37.046;2022-08-19T00:38:45;20.87;47.62
70321;DHT22;61127;55.826;37.046;2022-08-19T00:41:16;20.84;48.15
70321;DHT22;61127;55.826;37.046;2022-08-19T00:44:17;20.84;48.58
70321;DHT22;61127;55.826;37.046;2022-08-19T00:46:49;20.79;48.24
70321;DHT22;61127;55.826;37.046;2022-08-19T00:49:37;20.79;48.71
70321;DHT22;61127;55.826;37.046;2022-08-19T00:52:15;20.80;48.57
70321;DHT22;61127;55.826;37.046;2022-08-19T00:54:43;20.79;48.01
70321;DHT22;61127;55.826;37.046;2022-08-19T00:57:14;20.79;48.53
70321;DHT22;61127;55.826;37.046;2022-08-19T00:59:43;20.75;48.33
70321;DHT22;61127;55.826;37.046;2022-08-19T01:02:11;20.71;48.28
70321;DHT22;61127;55.826;37.046;2022-08-19T01:04:38;20.69;48.47
70321;DHT22;61127;55.826;37.046;2022-08-19T01:07:05;20.65;48.62
70321;DHT22;61127;55.826;37.046;2022-08-19T01:09:31;20.60;48.70
70321;DHT22;61127;55.826;37.046;2022-08-19T01:11:57;20.56;48.83
70321;DHT22;61127;55.826;37.046;2022-08-19T01:14:24;20.47;49.12
70321;DHT22;61127;55.826;37.046;2022-08-19T01:16:53;20.40;49.63
70321;DHT22;61127;55.826;37.046;2022-08-19T01:19:34;20.31;50.21
70321;DHT22;61127;55.826;37.046;2022-08-19T01:22:49;20.26;50.06
70321;DHT22;61127;55.826;37.046;2022-08-19T01:24:51;20.18;49.92
70321;DHT22;61127;55.826;37.046;2022-08-19T01:27:18;20.13;50.33
70321;DHT22;61127;55.826;37.046;2022-08-19T01:29:45;20.11;50.27
70321;DHT22;61127;55.826;37.046;2022-08-19T01:32:13;20.10;50.18
70321;DHT22;61127;55.826;37.046;2022-08-19T01:34:40;20.11;50.07
70321;DHT22;61127;55.826;37.046;2022-08-19T01:37:11;20.12;50.54
70321;DHT22;61127;55.826;37.046;2022-08-19T01:39:39;20.06;50.30
70321;DHT22;61127;55.826;37.046;2022-08-19T01:42:07;20.02;50.43
70321;DHT22;61127;55.826;37.046;2022-08-19T01:44:34;19.97;50.27
70321;DHT22;61127;55.826;37.046;2022-08-19T01:47:03;19.89;50.88
70321;DHT22;61127;55.826;37.046;2022-08-19T01:49:30;19.82;50.81
70321;DHT22;61127;55.826;37.046;2022-08-19T01:51:56;19.74;50.92
70321;DHT22;61127;55.826;37.046;2022-08-19T01:54:23;19.68;51.08
70321;DHT22;61127;55.826;37.046;2022-08-19T01:56:53;19.61;51.69
70321;DHT22;61127;55.826;37.046;2022-08-19T01:59:21;19.53;51.67
70321;DHT22;61127;55.826;37.046;2022-08-19T02:01:48;19.47;51.82
70321;DHT22;61127;55.826;37.046;2022-08-19T02:04:14;19.42;52.11
70321;DHT22;61127;55.826;37.046;2022-08-19T02:06:41;19.39;52.18
70321;DHT22;61127;55.826;37.046;2022-08-19T02:09:08;19.32;52.40
70321;DHT22;61127;55.826;37.046;2022-08-19T02:11:35;19.29;52.67
70321;DHT22;61127;55.826;37.046;2022-08-19T02:14:05;19.29;52.69
70321;DHT22;61127;55.826;37.046;2022-08-19T02:16:35;19.25;52.94
70321;DHT22;61127;55.826;37.046;2022-08-19T02:19:02;19.25;52.85
70321;DHT22;61127;55.826;37.046;2022-08-19T02:21:29;19.22;53.13
70321;DHT22;61127;55.826;37.046;2022-08-19T02:23:56;19.16;52.85
70321;DHT22;61127;55.826;37.046;2022-08-19T02:26:23;19.13;53.34
70321;DHT22;61127;55.826;37.046;2022-08-19T02:28:51;19.11;53.35
70321;DHT22;61127;55.826;37.046;2022-08-19T02:31:19;19.09;53.49
70321;DHT22;61127;55.826;37.046;2022-08-19T02:33:46;19.08;53.49
70321;DHT22;61127;55.826;37.046;2022-08-19T02:36:14;19.05;53.52
70321;DHT22;61127;55.826;37.046;2022-08-19T02:38:42;19.06;53.72
70321;DHT22;61127;55.826;37.046;2022-08-19T02:41:16;19.07;54.09
70321;DHT22;61127;55.826;37.046;2022-08-19T02:43:42;19.11;53.47
70321;DHT22;61127;55.826;37.046;2022-08-19T02:46:29;19.17;54.10
70321;DHT22;61127;55.826;37.046;2022-08-19T02:48:59;19.28;53.59
70321;DHT22;61127;55.826;37.046;2022-08-19T02:51:41;19.35;53.52
70321;DHT22;61127;55.826;37.046;2022-08-19T02:54:09;19.40;53.20
70321;DHT22;61127;55.826;37.046;2022-08-19T02:56:38;19.42;53.16
70321;DHT22;61127;55.826;37.046;2022-08-19T02:59:06;19.50;52.82
70321;DHT22;61127;55.826;37.046;2022-08-19T03:01:38;19.57;53.05
70321;DHT22;61127;55.826;37.046;2022-08-19T03:04:06;19.66;52.63
70321;DHT22;61127;55.826;37.046;2022-08-19T03:06:34;19.71;52.66
70321;DHT22;61127;55.826;37.046;2022-08-19T03:09:01;19.75;52.08
70321;DHT22;61127;55.826;37.046;2022-08-19T03:11:30;19.83;52.17
70321;DHT22;61127;55.826;37.046;2022-08-19T03:13:57;19.85;51.63
70321;DHT22;61127;55.826;37.046;2022-08-19T03:16:26;19.89;51.25
70321;DHT22;61127;55.826;37.046;2022-08-19T03:18:55;19.91;51.66
70321;DHT22;61127;55.826;37.046;2022-08-19T03:21:24;19.92;51.63
70321;DHT22;61127;55.826;37.046;2022-08-19T03:23:53;19.95;51.93
70321;DHT22;61127;55.826;37.046;2022-08-19T03:26:19;19.98;51.24
70321;DHT22;61127;55.826;37.046;2022-08-19T03:28:46;19.97;51.39
70321;DHT22;61127;55.826;37.046;2022-08-19T03:31:17;19.92;51.07
70321;DHT22;61127;55.826;37.046;2022-08-19T03:33:44;19.89;51.50
70321;DHT22;61127;55.826;37.046;2022-08-19T03:36:13;19.87;51.49
70321;DHT22;61127;55.826;37.046;2022-08-19T03:38:42;19.84;51.45
70321;DHT22;61127;55.826;37.046;2022-08-19T03:41:13;19.87;51.91
70321;DHT22;61127;55.826;37.046;2022-08-19T03:43:40;19.89;51.80
70321;DHT22;61127;55.826;37.046;2022-08-19T03:46:11;19.97;51.58
70321;DHT22;61127;55.826;37.046;2022-08-19T03:48:39;20.02;51.54
70321;DHT22;61127;55.826;37.046;2022-08-19T03:51:07;20.06;51.06
70321;DHT22;61127;55.826;37.046;2022-08-19T03:53:35;20.12;51.40
70321;DHT22;61127;55.826;37.046;2022-08-19T03:56:01;20.16;51.18
70321;DHT22;61127;55.826;37.046;2022-08-19T03:58:28;20.19;51.09
70321;DHT22;61127;55.826;37.046;2022-08-19T04:00:58;20.20;51.85
70321;DHT22;61127;55.826;37.046;2022-08-19T04:03:25;20.25;51.35
70321;DHT22;61127;55.826;37.046;2022-08-19T04:05:53;20.27;51.27
70321;DHT22;61127;55.826;37.046;2022-08-19T04:08:20;20.34;51.53
70321;DHT22;61127;55.826;37.046;2022-08-19T04:10:48;20.41;51.63
70321;DHT22;61127;55.826;37.046;2022-08-19T04:13:18;20.49;51.46
70321;DHT22;61127;55.826;37.046;2022-08-19T04:15:45;20.59;51.41
70321;DHT22;61127;55.826;37.046;2022-08-19T04:18:15;20.68;51.23
70321;DHT22;61127;55.826;37.046;2022-08-19T04:20:43;20.76;50.78
70321;DHT22;61127;55.826;37.046;2022-08-19T04:23:11;20.86;50.84
70321;DHT22;61127;55.826;37.046;2022-08-19T04:25:42;20.95;50.76
70321;DHT22;61127;55.826;37.046;2022-08-19T04:28:12;21.05;49.81
70321;DHT22;61127;55.826;37.046;2022-08-19T04:30:48;21.11;50.25
70321;DHT22;61127;55.826;37.046;2022-08-19T04:33:18;21.19;49.69
70321;DHT22;61127;55.826;37.046;2022-08-19T04:35:47;21.24;49.74
70321;DHT22;61127;55.826;37.046;2022-08-19T04:38:15;21.33;49.73
70321;DHT22;61127;55.826;37.046;2022-08-19T04:40:44;21.40;49.66
70321;DHT22;61127;55.826;37.046;2022-08-19T04:43:29;21.50;49.28
70321;DHT22;61127;55.826;37.046;2022-08-19T04:45:56;21.52;49.34
70321;DHT22;61127;55.826;37.046;2022-08-19T04:48:23;21.59;49.35
70321;DHT22;61127;55.826;37.046;2022-08-19T04:50:54;21.66;49.20
70321;DHT22;61127;55.826;37.046;2022-08-19T04:53:28;21.70;49.09
70321;DHT22;61127;55.826;37.046;2022-08-19T04:55:56;21.75;48.89
70321;DHT22;61127;55.826;37.046;2022-08-19T04:58:26;21.79;49.21
70321;DHT22;61127;55.826;37.046;2022-08-19T05:00:53;21.91;49.26
70321;DHT22;61127;55.826;37.046;2022-08-19T05:03:19;22.03;48.67
70321;DHT22;61127;55.826;37.046;2022-08-19T05:05:48;22.21;48.57
70321;DHT22;61127;55.826;37.046;2022-08-19T05:08:17;22.39;48.07
70321;DHT22;61127;55.826;37.046;2022-08-19T05:10:49;22.53;47.60
70321;DHT22;61127;55.826;37.046;2022-08-19T05:13:17;22.68;47.62
70321;DHT22;61127;55.826;37.046;2022-08-19T05:15:53;22.83;47.07
70321;DHT22;61127;55.826;37.046;2022-08-19T05:18:20;22.94;47.20
70321;DHT22;61127;55.826;37.046;2022-08-19T05:21:07;23.05;46.72
70321;DHT22;61127;55.826;37.046;2022-08-19T05:23:52;23.08;46.97
70321;DHT22;61127;55.826;37.046;2022-08-19T05:26:19;23.10;46.96
70321;DHT22;61127;55.826;37.046;2022-08-19T05:28:45;23.13;46.93
70321;DHT22;61127;55.826;37.046;2022-08-19T05:31:11;23.17;46.62
70321;DHT22;61127;55.826;37.046;2022-08-19T05:33:38;23.24;46.27
70321;DHT22;61127;55.826;37.046;2022-08-19T05:36:05;23.37;46.47
70321;DHT22;61127;55.826;37.046;2022-08-19T05:38:42;23.65;45.87
70321;DHT22;61127;55.826;37.046;2022-08-19T05:41:13;23.86;45.94
70321;DHT22;61127;55.826;37.046;2022-08-19T05:43:40;24.09;45.22
70321;DHT22;61127;55.826;37.046;2022-08-19T05:46:07;24.27;45.14
70321;DHT22;61127;55.826;37.046;2022-08-19T05:48:35;24.46;45.15
70321;DHT22;61127;55.826;37.046;2022-08-19T05:51:05;24.62;44.91
70321;DHT22;61127;55.826;37.046;2022-08-19T05:53:32;24.74;44.43
70321;DHT22;61127;55.826;37.046;2022-08-19T05:56:08;24.78;44.54
70321;DHT22;61127;55.826;37.046;2022-08-19T05:58:35;24.88;44.46
70321;DHT22;61127;55.826;37.046;2022-08-19T06:01:03;24.91;44.23
70321;DHT22;61127;55.826;37.046;2022-08-19T06:03:35;24.93;43.80
70321;DHT22;61127;55.826;37.046;2022-08-19T06:06:06;24.95;43.77
70321;DHT22;61127;55.826;37.046;2022-08-19T06:08:34;24.89;43.99
70321;DHT22;61127;55.826;37.046;2022-08-19T06:13:40;25.00;43.86
70321;DHT22;61127;55.826;37.046;2022-08-19T06:16:06;25.03;43.87
70321;DHT22;61127;55.826;37.046;2022-08-19T06:18:34;25.05;43.64
70321;DHT22;61127;55.826;37.046;2022-08-19T06:20:59;25.09;43.39
70321;DHT22;61127;55.826;37.046;2022-08-19T06:23:29;25.14;43.51
70321;DHT22;61127;55.826;37.046;2022-08-19T06:25:56;25.23;43.49
70321;DHT22;61127;55.826;37.046;2022-08-19T06:28:22;25.35;43.29
70321;DHT22;61127;55.826;37.046;2022-08-19T06:30:49;25.39;43.02
70321;DHT22;61127;55.826;37.046;2022-08-19T06:33:17;25.44;43.02
70321;DHT22;61127;55.826;37.046;2022-08-19T06:35:43;25.57;42.92
70321;DHT22;61127;55.826;37.046;2022-08-19T06:38:09;25.66;43.03
70321;DHT22;61127;55.826;37.046;2022-08-19T06:40:36;25.75;42.70
70321;DHT22;61127;55.826;37.046;2022-08-19T06:43:03;25.72;42.68
70321;DHT22;61127;55.826;37.046;2022-08-19T06:45:29;25.68;42.63
70321;DHT22;61127;55.826;37.046;2022-08-19T06:47:57;25.69;42.79
70321;DHT22;61127;55.826;37.046;2022-08-19T06:50:23;25.77;42.84
70321;DHT22;61127;55.826;37.046;2022-08-19T06:52:49;25.86;42.77
70321;DHT22;61127;55.826;37.046;2022-08-19T06:55:15;25.91;42.37
70321;DHT22;61127;55.826;37.046;2022-08-19T06:57:42;25.95;42.48
70321;DHT22;61127;55.826;37.046;2022-08-19T07:00:09;25.96;42.16
70321;DHT22;61127;55.826;37.046;2022-08-19T07:02:43;25.92;42.23
70321;DHT22;61127;55.826;37.046;2022-08-19T07:05:09;25.95;42.17
70321;DHT22;61127;55.826;37.046;2022-08-19T07:07:35;25.97;41.96
70321;DHT22;61127;55.826;37.046;2022-08-19T07:10:02;25.99;42.12
70321;DHT22;61127;55.826;37.046;2022-08-19T07:12:31;26.02;42.07
70321;DHT22;61127;55.826;37.046;2022-08-19T07:14:59;26.06;41.81
70321;DHT22;61127;55.826;37.046;2022-08-19T07:17:25;26.02;41.94
70321;DHT22;61127;55.826;37.046;2022-08-19T07:19:51;26.05;41.84
70321;DHT22;61127;55.826;37.046;2022-08-19T07:22:17;26.08;41.79
70321;DHT22;61127;55.826;37.046;2022-08-19T07:24:46;26.07;41.65
70321;DHT22;61127;55.826;37.046;2022-08-19T07:27:14;26.06;41.83
70321;DHT22;61127;55.826;37.046;2022-08-19T07:29:40;26.13;41.81
70321;DHT22;61127;55.826;37.046;2022-08-19T07:32:06;26.23;41.62
70321;DHT22;61127;55.826;37.046;2022-08-19T07:34:34;26.36;41.71
70321;DHT22;61127;55.826;37.046;2022-08-19T07:37:07;26.56;41.34
70321;DHT22;61127;55.826;37.046;2022-08-19T07:39:35;26.71;41.31
70321;DHT22;61127;55.826;37.046;2022-08-19T07:42:08;26.86;40.96
70321;DHT22;61127;55.826;37.046;2022-08-19T07:44:35;27.04;40.81
70321;DHT22;61127;55.826;37.046;2022-08-19T07:47:02;27.22;40.48
70321;DHT22;61127;55.826;37.046;2022-08-19T07:49:28;27.38;40.24
70321;DHT22;61127;55.826;37.046;2022-08-19T07:52:05;27.54;40.01
70321;DHT22;61127;55.826;37.046;2022-08-19T07:54:34;27.75;39.93
70321;DHT22;61127;55.826;37.046;2022-08-19T07:57:02;27.96;39.57
70321;DHT22;61127;55.826;37.046;2022-08-19T07:59:29;28.06;39.42
70321;DHT22;61127;55.826;37.046;2022-08-19T08:01:56;28.25;39.09
70321;DHT22;61127;55.826;37.046;2022-08-19T08:04:23;28.45;38.86
70321;DHT22;61127;55.826;37.046;2022-08-19T08:07:08;28.79;38.43
70321;DHT22;61127;55.826;37.046;2022-08-19T08:09:53;29.08;38.01
70321;DHT22;61127;55.826;37.046;2022-08-19T08:12:25;29.26;37.14
70321;DHT22;61127;55.826;37.046;2022-08-19T08:14:58;29.35;37.28
70321;DHT22;61127;55.826;37.046;2022-08-19T08:17:27;29.29;37.07
70321;DHT22;61127;55.826;37.046;2022-08-19T08:19:53;29.28;37.24
70321;DHT22;61127;55.826;37.046;2022-08-19T08:22:21;29.31;37.37
70321;DHT22;61127;55.826;37.046;2022-08-19T08:25:10;29.33;37.38
70321;DHT22;61127;55.826;37.046;2022-08-19T08:27:38;29.37;37.11
70321;DHT22;61127;55.826;37.046;2022-08-19T08:30:11;29.38;37.20
70321;DHT22;61127;55.826;37.046;2022-08-19T08:32:38;29.58;37.35
70321;DHT22;61127;55.826;37.046;2022-08-19T08:35:07;29.72;36.63
70321;DHT22;61127;55.826;37.046;2022-08-19T08:37:34;29.67;36.74
70321;DHT22;61127;55.826;37.046;2022-08-19T08:40:09;29.64;36.52
70321;DHT22;61127;55.826;37.046;2022-08-19T08:42:45;29.49;36.40
70321;DHT22;61127;55.826;37.046;2022-08-19T08:45:14;29.22;36.49
70321;DHT22;61127;55.826;37.046;2022-08-19T08:47:47;29.07;36.58
70321;DHT22;61127;55.826;37.046;2022-08-19T08:50:41;28.77;36.85
70321;DHT22;61127;55.826;37.046;2022-08-19T08:53:10;28.63;36.72
70321;DHT22;61127;55.826;37.046;2022-08-19T08:55:40;28.41;36.62
70321;DHT22;61127;55.826;37.046;2022-08-19T08:58:27;28.14;35.95
70321;DHT22;61127;55.826;37.046;2022-08-19T09:00:56;27.99;36.00
70321;DHT22;61127;55.826;37.046;2022-08-19T09:03:26;27.84;35.89
70321;DHT22;61127;55.826;37.046;2022-08-19T09:05:59;27.80;35.86
70321;DHT22;61127;55.826;37.046;2022-08-19T09:17:08;28.05;34.18
70321;DHT22;61127;55.826;37.046;2022-08-19T09:19:46;28.12;33.94
70321;DHT22;61127;55.826;37.046;2022-08-19T09:22:14;28.20;33.49
70321;DHT22;61127;55.826;37.046;2022-08-19T09:24:40;28.40;33.34
70321;DHT22;61127;55.826;37.046;2022-08-19T09:27:07;29.14;33.59
70321;DHT22;61127;55.826;37.046;2022-08-19T09:29:34;31.20;32.35
70321;DHT22;61127;55.826;37.046;2022-08-19T09:32:00;0.00;0.00
70321;DHT22;61127;55.826;37.046;2022-08-19T09:34:25;0.00;0.00
70321;DHT22;61127;55.826;37.046;2022-08-19T09:36:52;0.00;0.00
70321;DHT22;61127;55.826;37.046;2022-08-19T09:39:18;0.00;0.00
70321;DHT22;61127;55.826;37.046;2022-08-19T09:41:45;0.00;0.00
70321;DHT22;61127;55.826;37.046;2022-08-19T09:44:11;0.00;0.00
70321;DHT22;61127;55.826;37.046;2022-08-19T09:46:39;0.00;0.00
70321;DHT22;61127;55.826;37.046;2022-08-19T09:49:07;0.00;0.00
70321;DHT22;61127;55.826;37.046;2022-08-19T09:51:33;0.00;0.00
70321;DHT22;61127;55.826;37.046;2022-08-19T09:54:01;0.00;0.00
70321;DHT22;61127;55.826;37.046;2022-08-19T09:56:29;0.00;0.00
70321;DHT22;61127;55.826;37.046;2022-08-19T09:59:01;0.00;0.00
70321;DHT22;61127;55.826;37.046;2022-08-19T10:01:29;0.00;0.00
70321;DHT22;61127;55.826;37.046;2022-08-19T10:03:57;0.00;0.00
70321;DHT22;61127;55.826;37.046;2022-08-19T10:06:27;0.00;0.00
70321;DHT22;61127;55.826;37.046;2022-08-19T10:08:58;0.00;0.00
70321;DHT22;61127;55.826;37.046;2022-08-19T10:11:28;0.00;0.00
70321;DHT22;61127;55.826;37.046;2022-08-19T10:13:54;0.00;0.00
70321;DHT22;61127;55.826;37.046;2022-08-19T10:16:22;0.00;0.00
70321;DHT22;61127;55.826;37.046;2022-08-19T10:18:49;0.00;0.00
70321;DHT22;61127;55.826;37.046;2022-08-19T10:23:46;0.00;0.00
70321;DHT22;61127;55.826;37.046;2022-08-19T10:26:23;0.00;0.00
70321;DHT22;61127;55.826;37.046;2022-08-19T10:28:51;0.00;0.00
70321;DHT22;61127;55.826;37.046;2022-08-19T10:31:30;0.00;0.00
70321;DHT22;61127;55.826;37.046;2022-08-19T10:33:56;0.00;0.00
70321;DHT22;61127;55.826;37.046;2022-08-19T10:36:31;0.00;0.00
70321;DHT22;61127;55.826;37.046;2022-08-19T10:39:00;0.00;0.00
70321;DHT22;61127;55.826;37.046;2022-08-19T10:41:32;0.00;0.00
70321;DHT22;61127;55.826;37.046;2022-08-19T10:44:02;0.00;0.00
70321;DHT22;61127;55.826;37.046;2022-08-19T10:46:30;0.00;0.00
70321;DHT22;61127;55.826;37.046;2022-08-19T10:49:00;0.00;0.00
70321;DHT22;61127;55.826;37.046;2022-08-19T10:51:27;0.00;0.00
70321;DHT22;61127;55.826;37.046;2022-08-19T10:54:12;0.00;13.06
70321;DHT22;61127;55.826;37.046;2022-08-19T10:56:39;41.49;14.04
70321;DHT22;61127;55.826;37.046;2022-08-19T10:59:26;41.69;13.23
70321;DHT22;61127;55.826;37.046;2022-08-19T11:01:58;42.14;13.95
70321;DHT22;61127;55.826;37.046;2022-08-19T11:04:25;42.58;13.58
70321;DHT22;61127;55.826;37.046;2022-08-19T11:06:52;42.73;12.59
70321;DHT22;61127;55.826;37.046;2022-08-19T11:09:21;43.14;12.96
70321;DHT22;61127;55.826;37.046;2022-08-19T11:11:50;0.00;12.98
70321;DHT22;61127;55.826;37.046;2022-08-19T11:14:18;44.30;12.39
70321;DHT22;61127;55.826;37.046;2022-08-19T11:16:47;44.28;11.46
70321;DHT22;61127;55.826;37.046;2022-08-19T11:19:16;43.02;12.29
70321;DHT22;61127;55.826;37.046;2022-08-19T11:21:48;42.77;11.61
70321;DHT22;61127;55.826;37.046;2022-08-19T11:24:18;42.37;11.52
70321;DHT22;61127;55.826;37.046;2022-08-19T11:26:48;41.75;11.78
70321;DHT22;61127;55.826;37.046;2022-08-19T11:29:17;41.56;12.10
70321;DHT22;61127;55.826;37.046;2022-08-19T11:31:45;40.91;11.72
70321;DHT22;61127;55.826;37.046;2022-08-19T11:34:15;39.96;12.62
70321;DHT22;61127;55.826;37.046;2022-08-19T11:36:45;39.69;12.91
70321;DHT22;61127;55.826;37.046;2022-08-19T11:39:14;39.44;13.19
70321;DHT22;61127;55.826;37.046;2022-08-19T11:41:40;39.51;13.72
70321;DHT22;61127;55.826;37.046;2022-08-19T11:44:07;40.10;13.69
70321;DHT22;61127;55.826;37.046;2022-08-19T11:46:35;40.60;13.02
70321;DHT22;61127;55.826;37.046;2022-08-19T11:49:03;40.66;12.58
70321;DHT22;61127;55.826;37.046;2022-08-19T11:51:30;40.23;12.11
70321;DHT22;61127;55.826;37.046;2022-08-19T11:53:58;40.15;11.94
70321;DHT22;61127;55.826;37.046;2022-08-19T11:56:27;40.51;10.98
70321;DHT22;61127;55.826;37.046;2022-08-19T11:58:54;40.75;10.37
70321;DHT22;61127;55.826;37.046;2022-08-19T12:01:24;40.35;9.95
70321;DHT22;61127;55.826;37.046;2022-08-19T12:03:54;40.18;9.92
70321;DHT22;61127;55.826;37.046;2022-08-19T12:06:23;41.07;9.92
70321;DHT22;61127;55.826;37.046;2022-08-19T12:08:51;41.18;9.49
70321;DHT22;61127;55.826;37.046;2022-08-19T12:11:18;41.09;9.65
70321;DHT22;61127;55.826;37.046;2022-08-19T12:13:44;41.36;9.75
70321;DHT22;61127;55.826;37.046;2022-08-19T12:16:17;41.44;9.27
70321;DHT22;61127;55.826;37.046;2022-08-19T12:18:44;41.00;9.45
70321;DHT22;61127;55.826;37.046;2022-08-19T12:21:16;40.16;8.84
70321;DHT22;61127;55.826;37.046;2022-08-19T12:23:43;39.48;9.94
70321;DHT22;61127;55.826;37.046;2022-08-19T12:26:11;39.27;9.61
70321;DHT22;61127;55.826;37.046;2022-08-19T12:28:39;39.70;10.18
70321;DHT22;61127;55.826;37.046;2022-08-19T12:31:07;40.71;10.37
70321;DHT22;61127;55.826;37.046;2022-08-19T12:33:33;40.95;9.95
70321;DHT22;61127;55.826;37.046;2022-08-19T12:36:08;40.93;9.97
70321;DHT22;61127;55.826;37.046;2022-08-19T12:38:37;40.89;10.46
70321;DHT22;61127;55.826;37.046;2022-08-19T12:41:04;40.92;10.15
70321;DHT22;61127;55.826;37.046;2022-08-19T12:43:34;41.39;10.53
70321;DHT22;61127;55.826;37.046;2022-08-19T12:46:12;41.94;10.35
70321;DHT22;61127;55.826;37.046;2022-08-19T12:48:39;41.91;10.14
70321;DHT22;61127;55.826;37.046;2022-08-19T12:51:17;41.98;9.87
70321;DHT22;61127;55.826;37.046;2022-08-19T12:53:45;42.44;10.06
70321;DHT22;61127;55.826;37.046;2022-08-19T12:56:12;42.72;9.82
70321;DHT22;61127;55.826;37.046;2022-08-19T12:58:41;43.02;9.57
70321;DHT22;61127;55.826;37.046;2022-08-19T13:01:09;42.99;9.68
70321;DHT22;61127;55.826;37.046;2022-08-19T13:03:36;42.90;9.66
70321;DHT22;61127;55.826;37.046;2022-08-19T13:06:02;42.41;9.77
70321;DHT22;61127;55.826;37.046;2022-08-19T13:08:29;42.19;10.10
70321;DHT22;61127;55.826;37.046;2022-08-19T13:10:55;42.73;10.14
70321;DHT22;61127;55.826;37.046;2022-08-19T13:13:21;42.84;9.93
70321;DHT22;61127;55.826;37.046;2022-08-19T13:15:47;42.57;9.88
70321;DHT22;61127;55.826;37.046;2022-08-19T13:18:13;42.06;10.17
70321;DHT22;61127;55.826;37.046;2022-08-19T13:20:40;41.75;10.50
70321;DHT22;61127;55.826;37.046;2022-08-19T13:23:07;41.05;10.56
70321;DHT22;61127;55.826;37.046;2022-08-19T13:25:33;40.19;11.04
70321;DHT22;61127;55.826;37.046;2022-08-19T13:28:02;39.86;11.74
70321;DHT22;61127;55.826;37.046;2022-08-19T13:30:28;39.58;11.82
70321;DHT22;61127;55.826;37.046;2022-08-19T13:33:12;39.53;12.29
70321;DHT22;61127;55.826;37.046;2022-08-19T13:35:59;39.87;12.10
70321;DHT22;61127;55.826;37.046;2022-08-19T13:38:27;39.89;12.17
70321;DHT22;61127;55.826;37.046;2022-08-19T13:40:54;39.57;12.21
70321;DHT22;61127;55.826;37.046;2022-08-19T13:43:22;38.78;12.56
70321;DHT22;61127;55.826;37.046;2022-08-19T13:45:53;37.03;13.61
70321;DHT22;61127;55.826;37.046;2022-08-19T13:48:22;36.26;14.35
70321;DHT22;61127;55.826;37.046;2022-08-19T13:50:49;35.43;15.06
70321;DHT22;61127;55.826;37.046;2022-08-19T13:53:16;35.20;15.57
70321;DHT22;61127;55.826;37.046;2022-08-19T13:55:42;34.86;14.97
70321;DHT22;61127;55.826;37.046;2022-08-19T13:58:10;33.42;16.14
70321;DHT22;61127;55.826;37.046;2022-08-19T14:00:42;32.24;17.56
70321;DHT22;61127;55.826;37.046;2022-08-19T14:03:09;31.39;18.71
70321;DHT22;61127;55.826;37.046;2022-08-19T14:05:35;30.79;19.17
70321;DHT22;61127;55.826;37.046;2022-08-19T14:08:02;30.50;19.54
70321;DHT22;61127;55.826;37.046;2022-08-19T14:10:29;30.39;19.63
70321;DHT22;61127;55.826;37.046;2022-08-19T14:12:58;29.95;20.33
70321;DHT22;61127;55.826;37.046;2022-08-19T14:15:26;29.62;20.59
70321;DHT22;61127;55.826;37.046;2022-08-19T14:17:54;29.37;20.83
70321;DHT22;61127;55.826;37.046;2022-08-19T14:20:21;29.04;21.71
70321;DHT22;61127;55.826;37.046;2022-08-19T14:22:47;28.79;22.09
70321;DHT22;61127;55.826;37.046;2022-08-19T14:25:19;28.52;23.27
70321;DHT22;61127;55.826;37.046;2022-08-19T14:27:47;28.35;23.32
70321;DHT22;61127;55.826;37.046;2022-08-19T14:30:18;28.21;23.40
70321;DHT22;61127;55.826;37.046;2022-08-19T14:32:44;28.01;23.59
70321;DHT22;61127;55.826;37.046;2022-08-19T14:35:12;27.84;23.69
70321;DHT22;61127;55.826;37.046;2022-08-19T14:37:39;27.71;24.55
70321;DHT22;61127;55.826;37.046;2022-08-19T14:40:06;27.57;24.65
70321;DHT22;61127;55.826;37.046;2022-08-19T14:42:33;27.49;24.63
70321;DHT22;61127;55.826;37.046;2022-08-19T14:45:00;27.44;25.10
70321;DHT22;61127;55.826;37.046;2022-08-19T14:47:27;27.42;25.47
70321;DHT22;61127;55.826;37.046;2022-08-19T14:49:57;27.39;25.51
70321;DHT22;61127;55.826;37.046;2022-08-19T14:52:23;27.35;25.69
70321;DHT22;61127;55.826;37.046;2022-08-19T14:54:55;27.32;25.36
70321;DHT22;61127;55.826;37.046;2022-08-19T14:57:22;27.28;26.04
70321;DHT22;61127;55.826;37.046;2022-08-19T14:59:51;27.29;26.10
70321;DHT22;61127;55.826;37.046;2022-08-19T15:02:17;27.35;26.07
70321;DHT22;61127;55.826;37.046;2022-08-19T15:04:43;27.39;25.90
70321;DHT22;61127;55.826;37.046;2022-08-19T15:07:09;27.41;26.43
70321;DHT22;61127;55.826;37.046;2022-08-19T15:09:35;27.42;26.13
70321;DHT22;61127;55.826;37.046;2022-08-19T15:12:02;27.42;26.54
70321;DHT22;61127;55.826;37.046;2022-08-19T15:14:37;27.42;26.26
70321;DHT22;61127;55.826;37.046;2022-08-19T15:17:04;27.39;26.65
70321;DHT22;61127;55.826;37.046;2022-08-19T15:19:38;27.31;26.82
70321;DHT22;61127;55.826;37.046;2022-08-19T15:22:08;27.21;27.05
70321;DHT22;61127;55.826;37.046;2022-08-19T15:24:35;27.13;27.19
70321;DHT22;61127;55.826;37.046;2022-08-19T15:27:02;27.05;27.18
70321;DHT22;61127;55.826;37.046;2022-08-19T15:29:28;26.96;27.35
70321;DHT22;61127;55.826;37.046;2022-08-19T15:31:54;26.90;27.60
70321;DHT22;61127;55.826;37.046;2022-08-19T15:34:23;26.80;28.10
70321;DHT22;61127;55.826;37.046;2022-08-19T15:36:51;26.76;27.97
70321;DHT22;61127;55.826;37.046;2022-08-19T15:39:17;26.72;28.18
70321;DHT22;61127;55.826;37.046;2022-08-19T15:41:45;26.70;28.08
70321;DHT22;61127;55.826;37.046;2022-08-19T15:44:14;26.69;28.07
70321;DHT22;61127;55.826;37.046;2022-08-19T15:46:42;26.65;28.40